createdAt,value
2018-09-22T00:00:57.398Z,13.60
2018-09-22T00:03:25.818Z,13.60
2018-09-22T00:05:54.181Z,13.60
2018-09-22T00:08:22.551Z,13.50
2018-09-22T00:10:50.877Z,13.50
2018-09-22T00:13:19.272Z,13.50
2018-09-22T00:15:47.700Z,13.30
2018-09-22T00:18:16.078Z,13.40
2018-09-22T00:20:44.480Z,13.40
2018-09-22T00:23:12.887Z,13.40
2018-09-22T00:25:41.305Z,13.30
2018-09-22T00:28:09.699Z,13.20
2018-09-22T00:30:38.064Z,13.20
2018-09-22T00:33:06.780Z,13.20
2018-09-22T00:35:35.218Z,13.20
2018-09-22T00:38:03.556Z,13.20
2018-09-22T00:40:31.990Z,13.20
2018-09-22T00:43:00.353Z,13.20
2018-09-22T00:45:29.023Z,13.20
2018-09-22T00:47:57.404Z,13.20
2018-09-22T00:50:25.838Z,13.20
2018-09-22T00:52:54.212Z,13.00
2018-09-22T00:55:22.571Z,12.90
2018-09-22T00:57:51.072Z,12.90
2018-09-22T01:00:19.476Z,12.80
2018-09-22T01:02:47.863Z,12.70
2018-09-22T01:05:16.255Z,12.70
2018-09-22T01:07:44.708Z,12.70
2018-09-22T01:10:13.131Z,12.60
2018-09-22T01:12:41.566Z,12.70
2018-09-22T01:15:09.938Z,12.70
2018-09-22T01:17:39.291Z,12.60
2018-09-22T01:20:07.650Z,12.70
2018-09-22T01:22:36.779Z,12.60
2018-09-22T01:25:05.441Z,12.60
2018-09-22T01:27:33.868Z,12.60
2018-09-22T01:30:02.261Z,12.50
2018-09-22T01:32:30.645Z,12.60
2018-09-22T01:34:59.007Z,12.70
2018-09-22T01:37:27.389Z,12.70
2018-09-22T01:39:55.818Z,12.50
2018-09-22T01:42:24.287Z,12.60
2018-09-22T01:44:52.673Z,12.60
2018-09-22T01:47:21.072Z,12.60
2018-09-22T01:49:50.248Z,12.60
2018-09-22T01:52:18.718Z,12.60
2018-09-22T01:54:47.095Z,12.60
2018-09-22T01:57:15.510Z,12.60
2018-09-22T01:59:43.996Z,12.70
2018-09-22T02:02:12.336Z,12.80
2018-09-22T02:04:40.886Z,12.80
2018-09-22T02:07:09.245Z,12.80
2018-09-22T02:09:37.675Z,12.80
2018-09-22T02:12:06.051Z,12.80
2018-09-22T02:14:34.434Z,12.80
2018-09-22T02:17:02.805Z,12.80
2018-09-22T02:19:31.230Z,12.80
2018-09-22T02:21:59.688Z,12.70
2018-09-22T02:24:27.969Z,12.70
2018-09-22T02:26:56.467Z,12.60
2018-09-22T02:29:24.940Z,12.60
2018-09-22T02:31:53.319Z,12.60
2018-09-22T02:34:21.747Z,12.60
2018-09-22T02:36:50.296Z,12.50
2018-09-22T02:39:18.675Z,12.60
2018-09-22T02:41:47.095Z,12.50
2018-09-22T02:44:15.488Z,12.60
2018-09-22T02:46:43.855Z,12.50
2018-09-22T02:49:12.246Z,12.50
2018-09-22T02:51:40.826Z,12.50
2018-09-22T02:54:09.229Z,12.50
2018-09-22T02:56:37.616Z,12.50
2018-09-22T02:59:06.473Z,12.60
2018-09-22T03:01:34.932Z,12.60
2018-09-22T03:04:03.556Z,12.50
2018-09-22T03:06:31.956Z,12.50
2018-09-22T03:09:00.343Z,12.50
2018-09-22T03:11:28.717Z,12.40
2018-09-22T03:13:57.094Z,12.40
2018-09-22T03:16:25.663Z,12.40
2018-09-22T03:18:54.040Z,12.40
2018-09-22T03:21:22.431Z,12.40
2018-09-22T03:23:50.750Z,12.40
2018-09-22T03:26:19.160Z,12.40
2018-09-22T03:28:47.562Z,12.40
2018-09-22T03:31:15.955Z,12.50
2018-09-22T03:33:44.319Z,12.40
2018-09-22T03:36:12.775Z,12.40
2018-09-22T03:38:41.131Z,12.50
2018-09-22T03:41:09.535Z,12.60
2018-09-22T03:43:37.942Z,12.50
2018-09-22T03:46:06.357Z,12.60
2018-09-22T03:48:34.795Z,12.60
2018-09-22T03:51:03.161Z,12.50
2018-09-22T03:53:31.589Z,12.40
2018-09-22T03:55:59.922Z,12.40
2018-09-22T03:58:28.338Z,12.40
2018-09-22T04:00:56.724Z,12.40
2018-09-22T04:03:25.188Z,12.50
2018-09-22T04:05:53.542Z,12.40
2018-09-22T04:08:22.647Z,12.40
2018-09-22T04:10:51.020Z,12.50
2018-09-22T04:13:19.427Z,12.50
2018-09-22T04:15:47.790Z,12.50
2018-09-22T04:18:16.154Z,12.50
2018-09-22T04:20:44.565Z,12.40
2018-09-22T04:23:13.014Z,12.40
2018-09-22T04:25:41.382Z,12.50
2018-09-22T04:28:09.775Z,12.50
2018-09-22T04:30:38.099Z,12.50
2018-09-22T04:33:06.557Z,12.50
2018-09-22T04:35:34.939Z,12.50
2018-09-22T04:38:03.330Z,12.40
2018-09-22T04:40:31.711Z,12.30
2018-09-22T04:43:00.058Z,12.30
2018-09-22T04:45:28.452Z,12.20
2018-09-22T04:47:56.820Z,12.30
2018-09-22T04:50:25.198Z,12.20
2018-09-22T04:52:53.575Z,12.20
2018-09-22T04:55:21.948Z,12.30
2018-09-22T04:57:50.313Z,12.40
2018-09-22T05:00:18.681Z,12.30
2018-09-22T05:02:47.169Z,12.40
2018-09-22T05:05:15.578Z,12.30
2018-09-22T05:07:43.990Z,12.30
2018-09-22T05:10:12.465Z,12.20
2018-09-22T05:12:40.858Z,12.20
2018-09-22T05:15:09.297Z,12.20
2018-09-22T05:17:37.703Z,12.20
2018-09-22T05:20:06.115Z,12.10
2018-09-22T05:22:34.507Z,12.20
2018-09-22T05:25:03.792Z,12.10
2018-09-22T05:27:32.174Z,12.20
2018-09-22T05:30:00.545Z,12.20
2018-09-22T05:32:28.929Z,12.40
2018-09-22T05:34:57.280Z,12.40
2018-09-22T05:37:25.692Z,12.30
2018-09-22T05:39:54.076Z,12.20
2018-09-22T05:42:22.559Z,12.20
2018-09-22T05:44:50.897Z,12.30
2018-09-22T05:47:19.300Z,12.40
2018-09-22T05:49:47.690Z,12.40
2018-09-22T05:52:16.057Z,12.40
2018-09-22T05:54:44.422Z,12.30
2018-09-22T05:57:12.886Z,12.30
2018-09-22T05:59:41.304Z,12.20
2018-09-22T06:02:09.686Z,12.30
2018-09-22T06:04:38.193Z,12.20
2018-09-22T06:07:06.547Z,12.30
2018-09-22T06:09:35.278Z,12.40
2018-09-22T06:12:04.436Z,12.40
2018-09-22T06:14:32.812Z,12.30
2018-09-22T06:17:01.177Z,12.40
2018-09-22T06:19:29.602Z,12.40
2018-09-22T06:21:57.983Z,12.50
2018-09-22T06:24:26.377Z,12.60
2018-09-22T06:26:54.723Z,12.70
2018-09-22T06:29:23.186Z,12.70
2018-09-22T06:31:51.595Z,12.60
2018-09-22T06:34:20.197Z,12.70
2018-09-22T06:36:48.531Z,12.70
2018-09-22T06:39:16.950Z,12.70
2018-09-22T06:41:45.327Z,12.80
2018-09-22T06:44:13.747Z,12.60
2018-09-22T06:46:42.085Z,12.70
2018-09-22T06:49:10.479Z,12.70
2018-09-22T06:51:38.905Z,12.80
2018-09-22T06:54:08.273Z,12.90
2018-09-22T06:56:36.655Z,12.90
2018-09-22T06:59:05.099Z,12.90
2018-09-22T07:01:33.511Z,12.90
2018-09-22T07:04:01.879Z,12.90
2018-09-22T07:06:30.349Z,12.90
2018-09-22T07:08:58.703Z,13.00
2018-09-22T07:11:28.498Z,13.10
2018-09-22T07:13:57.056Z,13.20
2018-09-22T07:16:25.288Z,13.50
2018-09-22T07:18:53.715Z,13.50
2018-09-22T07:21:27.447Z,13.60
2018-09-22T07:23:55.843Z,13.60
2018-09-22T07:26:24.230Z,13.60
2018-09-22T07:28:52.598Z,13.70
2018-09-22T07:31:20.967Z,13.70
2018-09-22T07:33:49.375Z,13.70
2018-09-22T07:36:17.806Z,13.70
2018-09-22T07:38:46.231Z,13.70
2018-09-22T07:41:14.700Z,13.80
2018-09-22T07:43:43.023Z,14.00
2018-09-22T07:46:11.440Z,14.00
2018-09-22T07:48:39.777Z,13.90
2018-09-22T07:51:08.170Z,14.00
2018-09-22T07:53:36.514Z,14.00
2018-09-22T07:56:04.932Z,14.10
2018-09-22T07:58:34.051Z,13.90
2018-09-22T08:01:02.438Z,14.20
2018-09-22T08:03:30.873Z,14.10
2018-09-22T08:05:59.280Z,14.00
2018-09-22T08:08:27.763Z,14.20
2018-09-22T08:10:56.137Z,14.00
2018-09-22T08:13:24.555Z,14.10
2018-09-22T08:15:52.912Z,14.20
2018-09-22T08:18:21.333Z,14.40
2018-09-22T08:20:49.679Z,14.60
2018-09-22T08:23:18.093Z,14.70
2018-09-22T08:25:46.711Z,14.90
2018-09-22T08:28:15.101Z,15.30
2018-09-22T08:30:43.487Z,16.10
2018-09-22T08:33:12.046Z,16.60
2018-09-22T08:35:40.411Z,17.00
2018-09-22T08:38:08.791Z,17.00
2018-09-22T08:40:37.215Z,16.80
2018-09-22T08:43:05.624Z,16.50
2018-09-22T08:45:34.002Z,16.00
2018-09-22T08:48:02.398Z,15.80
2018-09-22T08:50:30.839Z,15.80
2018-09-22T08:52:59.226Z,15.90
2018-09-22T08:55:27.565Z,15.80
2018-09-22T08:57:55.969Z,15.90
2018-09-22T09:00:24.412Z,16.40
2018-09-22T09:02:52.755Z,16.90
2018-09-22T09:05:21.239Z,17.30
2018-09-22T09:07:49.652Z,17.40
2018-09-22T09:10:18.037Z,17.50
2018-09-22T09:12:46.386Z,17.60
2018-09-22T09:15:14.876Z,17.60
2018-09-22T09:17:43.273Z,17.80
2018-09-22T09:20:11.687Z,17.90
2018-09-22T09:22:40.082Z,17.90
2018-09-22T09:25:08.491Z,18.40
2018-09-22T09:27:36.956Z,18.50
2018-09-22T09:30:05.338Z,18.40
2018-09-22T09:32:33.774Z,18.60
2018-09-22T09:35:02.215Z,19.40
2018-09-22T09:37:30.602Z,20.90
2018-09-22T09:39:59.056Z,21.10
2018-09-22T09:42:27.458Z,21.40
2018-09-22T09:44:55.851Z,21.80
2018-09-22T09:47:24.301Z,22.20
2018-09-22T09:49:52.661Z,21.50
2018-09-22T09:52:21.103Z,21.40
2018-09-22T09:54:49.586Z,20.80
2018-09-22T09:57:17.989Z,20.30
2018-09-22T09:59:46.332Z,19.50
2018-09-22T10:02:14.707Z,19.40
2018-09-22T10:04:43.123Z,19.40
2018-09-22T10:07:11.466Z,19.20
2018-09-22T10:09:39.836Z,18.50
2018-09-22T10:12:08.287Z,18.80
2018-09-22T10:14:36.674Z,19.40
2018-09-22T10:17:05.143Z,19.80
2018-09-22T10:19:33.527Z,19.90
2018-09-22T10:22:01.991Z,20.20
2018-09-22T10:24:30.314Z,20.50
2018-09-22T10:26:58.722Z,19.70
2018-09-22T10:29:27.086Z,18.80
2018-09-22T10:31:55.442Z,18.60
2018-09-22T10:34:23.843Z,18.50
2018-09-22T10:36:52.266Z,18.60
2018-09-22T10:39:20.638Z,19.30
2018-09-22T10:41:49.068Z,19.50
2018-09-22T10:44:17.465Z,19.90
2018-09-22T10:46:45.808Z,20.20
2018-09-22T10:49:15.694Z,20.30
2018-09-22T10:51:44.072Z,20.70
2018-09-22T10:54:12.483Z,20.60
2018-09-22T10:56:40.830Z,20.80
2018-09-22T10:59:09.227Z,21.40
2018-09-22T11:01:37.594Z,21.00
2018-09-22T11:04:05.992Z,20.50
2018-09-22T11:06:34.345Z,19.90
2018-09-22T11:09:02.762Z,19.80
2018-09-22T11:11:31.236Z,20.00
2018-09-22T11:13:59.614Z,20.30
2018-09-22T11:16:27.997Z,20.80
2018-09-22T11:18:56.366Z,21.00
2018-09-22T11:21:24.727Z,20.70
2018-09-22T11:23:53.099Z,20.60
2018-09-22T11:26:21.562Z,20.60
2018-09-22T11:28:49.916Z,20.90
2018-09-22T11:31:18.354Z,21.60
2018-09-22T11:33:46.768Z,22.00
2018-09-22T11:36:15.207Z,22.20
2018-09-22T11:38:43.585Z,21.60
2018-09-22T11:41:12.102Z,20.70
2018-09-22T11:43:40.482Z,20.70
2018-09-22T11:46:10.216Z,21.30
2018-09-22T11:48:38.573Z,21.70
2018-09-22T11:51:07.016Z,21.40
2018-09-22T11:53:35.388Z,21.10
2018-09-22T11:56:03.772Z,20.90
2018-09-22T11:58:32.135Z,20.60
2018-09-22T12:01:00.516Z,20.50
2018-09-22T12:03:28.927Z,20.40
2018-09-22T12:05:57.344Z,20.90
2018-09-22T12:08:25.664Z,20.70
2018-09-22T12:10:54.066Z,21.00
2018-09-22T12:13:22.554Z,20.70
2018-09-22T12:15:50.969Z,20.50
2018-09-22T12:18:19.309Z,19.90
2018-09-22T12:20:47.765Z,19.70
2018-09-22T12:23:16.123Z,19.80
2018-09-22T12:25:44.545Z,20.10
2018-09-22T12:28:12.909Z,19.90
2018-09-22T12:30:41.276Z,20.10
2018-09-22T12:33:09.612Z,19.90
2018-09-22T12:35:38.035Z,19.80
2018-09-22T12:38:06.867Z,19.50
2018-09-22T12:40:35.270Z,19.40
2018-09-22T12:43:03.725Z,19.60
2018-09-22T12:45:32.074Z,19.70
2018-09-22T12:48:00.435Z,19.90
2018-09-22T12:50:28.790Z,20.20
2018-09-22T12:52:57.217Z,20.00
2018-09-22T12:55:25.616Z,19.90
2018-09-22T12:57:53.981Z,20.10
2018-09-22T13:00:22.410Z,20.20
2018-09-22T13:02:50.752Z,20.20
2018-09-22T13:05:19.146Z,20.20
2018-09-22T13:07:47.947Z,20.20
2018-09-22T13:10:16.298Z,20.10
2018-09-22T13:12:44.915Z,19.80
2018-09-22T13:15:13.352Z,19.30
2018-09-22T13:17:41.768Z,19.20
2018-09-22T13:20:10.165Z,19.00
2018-09-22T13:22:38.567Z,18.80
2018-09-22T13:25:06.947Z,18.70
2018-09-22T13:27:35.364Z,18.70
2018-09-22T13:30:03.873Z,18.80
2018-09-22T13:32:32.300Z,18.70
2018-09-22T13:35:00.708Z,18.80
2018-09-22T13:37:29.052Z,18.80
2018-09-22T13:39:57.438Z,18.70
2018-09-22T13:42:25.853Z,18.70
2018-09-22T13:44:54.197Z,18.80
2018-09-22T13:47:22.610Z,18.80
2018-09-22T13:49:51.010Z,18.70
2018-09-22T13:52:19.407Z,18.70
2018-09-22T13:54:47.803Z,18.80
2018-09-22T13:57:16.154Z,18.70
2018-09-22T13:59:44.522Z,18.60
2018-09-22T14:02:12.907Z,18.70
2018-09-22T14:04:41.275Z,18.70
2018-09-22T14:07:09.649Z,18.80
2018-09-22T14:09:37.992Z,18.70
2018-09-22T14:12:06.497Z,18.60
2018-09-22T14:14:35.033Z,18.70
2018-09-22T14:17:04.597Z,18.70
2018-09-22T14:19:32.970Z,18.90
2018-09-22T14:22:01.310Z,18.90
2018-09-22T14:24:29.706Z,19.00
2018-09-22T14:26:58.151Z,19.10
2018-09-22T14:29:26.470Z,19.10
2018-09-22T14:31:54.901Z,19.00
2018-09-22T14:34:23.249Z,18.80
2018-09-22T14:36:51.660Z,18.70
2018-09-22T14:39:20.050Z,18.80
2018-09-22T14:41:48.452Z,18.70
2018-09-22T14:44:16.871Z,18.60
2018-09-22T14:46:45.300Z,18.60
2018-09-22T14:49:13.683Z,18.50
2018-09-22T14:51:42.075Z,18.40
2018-09-22T14:54:10.444Z,18.40
2018-09-22T14:56:38.890Z,18.50
2018-09-22T14:59:07.307Z,18.50
2018-09-22T15:01:35.726Z,18.60
2018-09-22T15:04:04.090Z,18.70
2018-09-22T15:06:32.553Z,18.60
2018-09-22T15:09:00.898Z,18.60
2018-09-22T15:11:29.284Z,18.50
2018-09-22T15:13:57.649Z,18.40
2018-09-22T15:16:26.077Z,18.50
2018-09-22T15:18:54.466Z,18.30
2018-09-22T15:21:22.854Z,18.20
2018-09-22T15:23:51.282Z,18.10
2018-09-22T15:26:19.651Z,18.10
2018-09-22T15:28:48.077Z,18.00
2018-09-22T15:31:16.435Z,18.00
2018-09-22T15:33:44.822Z,18.00
2018-09-22T15:36:13.314Z,18.00
2018-09-22T15:38:41.676Z,18.00
2018-09-22T15:41:10.012Z,18.00
2018-09-22T15:43:38.462Z,18.10
2018-09-22T15:46:06.850Z,18.20
2018-09-22T15:48:35.337Z,18.20
2018-09-22T15:51:03.701Z,18.10
2018-09-22T15:53:32.117Z,18.20
2018-09-22T15:56:00.882Z,18.20
2018-09-22T15:58:29.911Z,18.20
2018-09-22T16:00:58.357Z,18.10
2018-09-22T16:03:26.693Z,18.00
2018-09-22T16:05:55.263Z,18.00
2018-09-22T16:08:23.677Z,17.90
2018-09-22T16:10:52.023Z,17.90
2018-09-22T16:13:20.410Z,17.80
2018-09-22T16:15:48.750Z,17.70
2018-09-22T16:18:17.086Z,17.80
2018-09-22T16:20:45.480Z,17.60
2018-09-22T16:23:13.894Z,17.50
2018-09-22T16:25:42.254Z,17.40
2018-09-22T16:28:10.646Z,17.30
2018-09-22T16:30:39.041Z,17.30
2018-09-22T16:33:07.461Z,17.20
2018-09-22T16:35:35.864Z,17.10
2018-09-22T16:38:04.249Z,17.10
2018-09-22T16:40:32.741Z,17.00
2018-09-22T16:43:01.115Z,17.00
2018-09-22T16:45:29.505Z,16.80
2018-09-22T16:47:57.889Z,16.70
2018-09-22T16:50:26.391Z,16.60
2018-09-22T16:52:54.703Z,16.40
2018-09-22T16:55:23.172Z,16.20
2018-09-22T16:57:51.510Z,16.00
2018-09-22T17:00:19.924Z,16.00
2018-09-22T17:02:48.288Z,15.90
2018-09-22T17:05:16.724Z,15.80
2018-09-22T17:07:45.136Z,15.80
2018-09-22T17:10:13.581Z,15.80
2018-09-22T17:12:41.969Z,15.70
2018-09-22T17:15:10.367Z,15.80
2018-09-22T17:17:39.058Z,15.80
2018-09-22T17:20:07.442Z,15.80
2018-09-22T17:22:35.913Z,15.80
2018-09-22T17:25:04.316Z,15.80
2018-09-22T17:27:32.776Z,15.90
2018-09-22T17:30:01.112Z,15.90
2018-09-22T17:32:29.581Z,15.90
2018-09-22T17:34:57.964Z,15.90
2018-09-22T17:37:26.351Z,15.80
2018-09-22T17:39:54.723Z,15.90
2018-09-22T17:42:23.142Z,15.80
2018-09-22T17:44:51.506Z,15.70
2018-09-22T17:47:19.931Z,15.60
2018-09-22T17:49:48.359Z,15.50
2018-09-22T17:52:16.794Z,15.40
2018-09-22T17:54:45.173Z,15.30
2018-09-22T17:57:13.618Z,15.20
2018-09-22T17:59:41.999Z,15.10
2018-09-22T18:02:10.393Z,15.00
2018-09-22T18:04:38.812Z,15.00
2018-09-22T18:07:07.203Z,15.10
2018-09-22T18:09:35.631Z,14.90
2018-09-22T18:12:04.058Z,14.90
2018-09-22T18:14:33.035Z,14.90
2018-09-22T18:17:01.394Z,14.70
2018-09-22T18:19:29.867Z,14.60
2018-09-22T18:21:58.497Z,14.60
2018-09-22T18:24:26.934Z,14.50
2018-09-22T18:26:55.316Z,14.50
2018-09-22T18:29:23.785Z,14.50
2018-09-22T18:31:52.192Z,14.50
2018-09-22T18:34:20.886Z,14.50
2018-09-22T18:36:49.236Z,14.50
2018-09-22T18:39:17.716Z,14.50
2018-09-22T18:41:46.131Z,14.50
2018-09-22T18:44:14.565Z,14.50
2018-09-22T18:46:43.025Z,14.50
2018-09-22T18:49:11.452Z,14.60
2018-09-22T18:51:39.841Z,14.60
2018-09-22T18:54:08.298Z,14.60
2018-09-22T18:56:36.705Z,14.60
2018-09-22T18:59:05.210Z,14.70
2018-09-22T19:01:33.785Z,14.70
2018-09-22T19:04:02.206Z,14.60
2018-09-22T19:06:30.616Z,14.60
2018-09-22T19:08:59.084Z,14.60
2018-09-22T19:11:28.242Z,14.60
2018-09-22T19:14:01.310Z,14.50
2018-09-22T19:16:35.124Z,14.60
2018-09-22T19:19:07.017Z,14.60
2018-09-22T19:21:44.952Z,14.50
2018-09-22T19:24:21.586Z,14.40
2018-09-22T19:26:53.280Z,14.40
2018-09-22T19:29:29.197Z,14.50
2018-09-22T19:32:05.198Z,14.50
2018-09-22T19:34:37.955Z,14.50
2018-09-22T19:37:10.321Z,14.50
2018-09-22T19:39:45.759Z,14.50
2018-09-22T19:42:19.518Z,14.60
2018-09-22T19:44:53.704Z,14.60
2018-09-22T19:47:25.670Z,14.60
2018-09-22T19:49:58.553Z,14.50
2018-09-22T19:52:31.384Z,14.60
2018-09-22T19:55:00.499Z,14.50
2018-09-22T19:57:28.981Z,14.50
2018-09-22T19:59:57.657Z,14.50
2018-09-22T20:02:26.240Z,14.50
2018-09-22T20:04:54.698Z,14.50
2018-09-22T20:07:23.114Z,14.50
2018-09-22T20:09:51.652Z,14.40
2018-09-22T20:12:20.896Z,14.40
2018-09-22T20:14:49.351Z,14.40
2018-09-22T20:17:17.876Z,14.50
2018-09-22T20:19:46.256Z,14.60
2018-09-22T20:22:14.654Z,14.60
2018-09-22T20:24:43.165Z,14.60
2018-09-22T20:27:11.607Z,14.50
2018-09-22T20:29:40.180Z,14.50
2018-09-22T20:32:08.686Z,14.40
2018-09-22T20:34:37.101Z,14.50
2018-09-22T20:37:05.584Z,14.60
2018-09-22T20:39:34.106Z,14.50
2018-09-22T20:42:02.554Z,14.40
2018-09-22T20:44:31.139Z,14.50
2018-09-22T20:47:00.196Z,14.50
2018-09-22T20:49:28.716Z,14.60
2018-09-22T20:51:57.480Z,14.50
2018-09-22T20:54:26.002Z,14.50
2018-09-22T20:56:54.385Z,14.40
2018-09-22T20:59:22.806Z,14.20
2018-09-22T21:01:51.214Z,14.10
2018-09-22T21:04:19.624Z,14.00
2018-09-22T21:06:48.066Z,13.90
2018-09-22T21:09:16.472Z,13.90
2018-09-22T21:11:44.930Z,13.90
2018-09-22T21:14:13.345Z,14.00
2018-09-22T21:16:41.735Z,13.80
2018-09-22T21:19:10.166Z,13.70
2018-09-22T21:21:38.583Z,13.60
2018-09-22T21:24:07.130Z,13.70
2018-09-22T21:26:35.729Z,13.70
2018-09-22T21:29:04.192Z,13.70
2018-09-22T21:31:32.582Z,13.70
2018-09-22T21:34:01.004Z,13.70
2018-09-22T21:36:29.413Z,13.60
2018-09-22T21:38:57.847Z,13.50
2018-09-22T21:41:26.264Z,13.40
2018-09-22T21:43:54.759Z,13.30
2018-09-22T21:46:23.151Z,13.30
2018-09-22T21:48:51.548Z,13.30
2018-09-22T21:51:19.926Z,13.20
2018-09-22T21:53:48.355Z,13.20
2018-09-22T21:56:16.789Z,13.10
2018-09-22T21:58:45.374Z,13.20
2018-09-22T22:01:19.047Z,13.10
2018-09-22T22:03:47.460Z,13.20
2018-09-22T22:06:15.822Z,13.20
2018-09-22T22:08:44.259Z,13.40
2018-09-22T22:11:12.757Z,13.50
2018-09-22T22:13:41.246Z,13.50
2018-09-22T22:16:09.689Z,13.70
2018-09-22T22:18:38.053Z,13.70
2018-09-22T22:21:06.474Z,13.70
2018-09-22T22:23:34.896Z,13.70
2018-09-22T22:26:03.276Z,13.80
2018-09-22T22:28:31.670Z,13.70
2018-09-22T22:31:00.072Z,13.60
2018-09-22T22:33:28.469Z,13.40
2018-09-22T22:35:56.864Z,13.40
2018-09-22T22:38:25.208Z,13.40
2018-09-22T22:40:53.588Z,13.50
2018-09-22T22:43:21.958Z,13.60
2018-09-22T22:45:50.336Z,13.60
2018-09-22T22:48:18.684Z,13.70
2018-09-22T22:50:47.095Z,13.80
2018-09-22T22:53:15.511Z,13.60
2018-09-22T22:55:43.911Z,13.60
2018-09-22T22:58:12.240Z,13.80
2018-09-22T23:00:40.619Z,13.70
2018-09-22T23:03:09.005Z,13.70
2018-09-22T23:05:37.406Z,13.60
2018-09-22T23:08:05.779Z,13.70
2018-09-22T23:10:34.207Z,13.70
2018-09-22T23:13:02.656Z,13.70
2018-09-22T23:15:31.040Z,13.70
2018-09-22T23:17:59.392Z,13.60
2018-09-22T23:20:27.788Z,13.60
2018-09-22T23:22:56.183Z,13.80
2018-09-22T23:25:24.544Z,13.70
2018-09-22T23:27:52.923Z,13.70
2018-09-22T23:30:21.298Z,13.60
2018-09-22T23:32:49.644Z,13.50
2018-09-22T23:35:18.000Z,13.40
2018-09-22T23:37:46.422Z,13.40
2018-09-22T23:40:14.807Z,13.30
2018-09-22T23:42:43.200Z,13.30
2018-09-22T23:45:11.530Z,13.20
2018-09-22T23:47:40.831Z,13.10
2018-09-22T23:50:09.196Z,13.10
2018-09-22T23:52:37.609Z,13.00
2018-09-22T23:55:06.377Z,13.00
2018-09-22T23:57:34.777Z,13.00
